Aviation Digital Data Service (ADDS)

Output produced by METARs form (0141 UTC 20 April 2014)
found at http://aviationweather.gov/adds/metars/
 
KRDU 192323Z 2000/2024 05010KT P6SM OVC060 
     FM201500 03011G22KT P6SM BKN040 BKN200